createdAt,value
2018-05-26T00:00:02.904Z,10.00
2018-05-26T00:02:30.366Z,9.63
2018-05-26T00:04:57.833Z,9.93
2018-05-26T00:07:26.063Z,9.73
2018-05-26T00:09:53.542Z,9.77
2018-05-26T00:12:21.011Z,10.27
2018-05-26T00:14:48.481Z,10.60
2018-05-26T00:17:16.709Z,10.33
2018-05-26T00:19:44.174Z,10.67
2018-05-26T00:22:11.630Z,10.20
2018-05-26T00:24:39.114Z,10.70
2018-05-26T00:27:06.582Z,10.40
2018-05-26T00:29:34.072Z,10.57
2018-05-26T00:32:01.538Z,10.73
2018-05-26T00:34:29.012Z,10.60
2018-05-26T00:36:56.478Z,11.20
2018-05-26T00:39:23.966Z,10.80
2018-05-26T00:41:52.194Z,10.70
2018-05-26T00:44:19.683Z,11.07
2018-05-26T00:46:47.148Z,10.50
2018-05-26T00:49:14.622Z,10.80
2018-05-26T00:51:42.850Z,11.03
2018-05-26T00:54:10.327Z,11.37
2018-05-26T00:56:37.785Z,10.70
2018-05-26T00:59:05.280Z,11.77
2018-05-26T01:01:32.753Z,11.47
2018-05-26T01:04:00.217Z,11.40
2018-05-26T01:06:27.686Z,10.53
2018-05-26T01:08:55.154Z,10.33
2018-05-26T01:11:22.635Z,11.03
2018-05-26T01:13:50.103Z,10.73
2018-05-26T01:16:17.577Z,10.60
2018-05-26T01:18:45.043Z,10.33
2018-05-26T01:21:12.514Z,10.40
2018-05-26T01:23:39.982Z,10.30
2018-05-26T01:26:07.458Z,9.73
2018-05-26T01:28:34.914Z,10.00
2018-05-26T01:31:02.390Z,10.70
2018-05-26T01:33:30.150Z,9.83
2018-05-26T01:35:57.617Z,9.73
2018-05-26T01:38:25.087Z,10.33
2018-05-26T01:40:53.322Z,10.77
2018-05-26T01:43:20.898Z,10.63
2018-05-26T01:45:48.381Z,10.00
2018-05-26T01:48:15.833Z,10.27
2018-05-26T01:50:44.071Z,10.23
2018-05-26T01:53:11.533Z,10.60
2018-05-26T01:55:38.997Z,10.37
2018-05-26T01:58:06.454Z,10.40
2018-05-26T02:00:33.925Z,10.80
2018-05-26T02:03:01.385Z,11.37
2018-05-26T02:05:28.870Z,10.93
2018-05-26T02:07:56.331Z,11.20
2018-05-26T02:10:23.789Z,9.93
2018-05-26T02:12:51.266Z,10.97
2018-05-26T02:15:18.728Z,10.50
2018-05-26T02:17:46.201Z,10.57
2018-05-26T02:20:13.671Z,10.33
2018-05-26T02:22:41.143Z,9.83
2018-05-26T02:25:08.610Z,10.73
2018-05-26T02:27:36.850Z,10.10
2018-05-26T02:30:04.314Z,9.97
2018-05-26T02:32:31.783Z,10.10
2018-05-26T02:34:59.243Z,10.57
2018-05-26T02:37:26.715Z,10.00
2018-05-26T02:39:54.182Z,10.07
2018-05-26T02:42:21.659Z,10.23
2018-05-26T02:44:49.126Z,10.60
2018-05-26T02:47:16.598Z,10.20
2018-05-26T02:49:44.070Z,10.37
2018-05-26T02:52:11.546Z,10.37
2018-05-26T02:54:39.011Z,11.33
2018-05-26T02:57:07.249Z,10.33
2018-05-26T02:59:34.725Z,9.83
2018-05-26T03:02:02.215Z,10.57
2018-05-26T03:04:35.246Z,10.57
2018-05-26T03:07:08.542Z,10.70
2018-05-26T03:09:41.622Z,10.23
2018-05-26T03:12:14.789Z,10.10
2018-05-26T03:14:46.707Z,10.97
2018-05-26T03:17:19.899Z,10.10
2018-05-26T03:19:47.361Z,10.20
2018-05-26T03:22:14.831Z,10.57
2018-05-26T03:24:42.316Z,10.50
2018-05-26T03:27:09.779Z,11.27
2018-05-26T03:29:37.250Z,11.10
2018-05-26T03:32:04.722Z,10.60
2018-05-26T03:34:32.206Z,10.30
2018-05-26T03:37:00.434Z,10.70
2018-05-26T03:39:27.910Z,10.50
2018-05-26T03:41:55.568Z,11.80
2018-05-26T03:44:23.038Z,11.40
2018-05-26T03:46:50.510Z,10.77
2018-05-26T03:49:17.982Z,9.93
2018-05-26T03:51:45.445Z,10.57
2018-05-26T03:54:12.927Z,10.00
2018-05-26T03:56:52.117Z,10.40
2018-05-26T03:59:22.179Z,10.70
2018-05-26T04:01:49.639Z,10.97
2018-05-26T04:04:17.236Z,11.00
2018-05-26T04:06:44.698Z,10.30
2018-05-26T04:09:12.182Z,10.90
2018-05-26T04:11:39.641Z,11.43
2018-05-26T04:14:07.095Z,11.10
2018-05-26T04:16:34.575Z,11.37
2018-05-26T04:19:02.043Z,11.47
2018-05-26T04:21:29.514Z,11.90
2018-05-26T04:23:56.974Z,11.63
2018-05-26T04:26:24.445Z,11.90
2018-05-26T04:28:51.909Z,11.97
2018-05-26T04:31:19.390Z,11.90
2018-05-26T04:33:47.623Z,12.00
2018-05-26T04:36:15.103Z,12.50
2018-05-26T04:38:42.562Z,11.50
2018-05-26T04:41:10.759Z,11.93
2018-05-26T04:43:38.223Z,12.63
2018-05-26T04:46:05.703Z,11.93
2018-05-26T04:48:33.163Z,12.00
2018-05-26T04:51:00.642Z,12.20
2018-05-26T04:53:28.110Z,12.73
2018-05-26T04:55:55.587Z,13.03
2018-05-26T04:58:23.046Z,12.93
2018-05-26T05:00:50.515Z,12.13
2018-05-26T05:03:17.974Z,12.17
2018-05-26T05:05:45.466Z,12.10
2018-05-26T05:08:12.916Z,12.40
2018-05-26T05:10:40.406Z,12.33
2018-05-26T05:13:07.875Z,12.40
2018-05-26T05:15:35.342Z,12.90
2018-05-26T05:18:02.881Z,12.87
2018-05-26T05:20:30.350Z,13.23
2018-05-26T05:22:58.593Z,13.00
2018-05-26T05:25:26.096Z,14.63
2018-05-26T05:27:53.570Z,14.93
2018-05-26T05:30:21.029Z,14.57
2018-05-26T05:32:48.502Z,13.83
2018-05-26T05:35:15.962Z,14.73
2018-05-26T05:37:43.442Z,14.03
2018-05-26T05:40:10.914Z,13.63
2018-05-26T05:42:38.385Z,13.53
2018-05-26T05:45:06.623Z,14.17
2018-05-26T05:47:34.096Z,13.97
2018-05-26T05:50:01.562Z,14.63
2018-05-26T05:52:29.038Z,14.20
2018-05-26T05:54:56.506Z,14.87
2018-05-26T05:57:23.987Z,14.43
2018-05-26T05:59:51.449Z,14.57
2018-05-26T06:02:18.931Z,14.13
2018-05-26T06:04:46.519Z,13.30
2018-05-26T06:07:13.990Z,13.43
2018-05-26T06:09:41.462Z,13.37
2018-05-26T06:12:09.081Z,13.70
2018-05-26T06:14:36.554Z,13.23
2018-05-26T06:17:05.122Z,14.10
2018-05-26T06:19:32.892Z,13.10
2018-05-26T06:22:00.523Z,13.33
2018-05-26T06:24:28.120Z,12.17
2018-05-26T06:26:55.867Z,11.60
2018-05-26T06:29:23.632Z,10.83
2018-05-26T06:31:51.160Z,10.67
2018-05-26T06:34:18.858Z,10.90
2018-05-26T06:36:46.614Z,11.97
2018-05-26T06:39:14.384Z,10.70
2018-05-26T06:41:42.013Z,9.10
2018-05-26T06:44:09.498Z,10.70
2018-05-26T06:46:36.983Z,9.77
2018-05-26T06:49:04.467Z,10.10
2018-05-26T06:51:31.944Z,10.07
2018-05-26T06:53:59.426Z,9.90
2018-05-26T06:56:27.191Z,9.00
2018-05-26T06:58:54.665Z,8.63
2018-05-26T07:01:22.415Z,7.80
2018-05-26T07:03:50.178Z,7.27
2018-05-26T07:06:17.631Z,6.83
2018-05-26T07:08:45.392Z,7.80
2018-05-26T07:11:13.163Z,7.53
2018-05-26T07:13:40.922Z,7.27
2018-05-26T07:16:08.574Z,7.03
2018-05-26T07:18:36.138Z,7.97
2018-05-26T07:21:03.786Z,7.97
2018-05-26T07:23:31.268Z,7.50
2018-05-26T07:25:58.738Z,8.00
2018-05-26T07:28:26.204Z,7.50
2018-05-26T07:30:53.739Z,7.60
2018-05-26T07:33:21.383Z,7.93
2018-05-26T07:35:48.872Z,6.93
2018-05-26T07:38:16.342Z,6.90
2018-05-26T07:40:43.815Z,7.50
2018-05-26T07:43:11.279Z,6.60
2018-05-26T07:45:38.753Z,7.33
2018-05-26T07:48:06.418Z,6.53
2018-05-26T07:50:33.919Z,6.57
2018-05-26T07:53:01.459Z,5.90
2018-05-26T07:55:29.221Z,6.10
2018-05-26T07:57:56.990Z,6.47
2018-05-26T08:00:24.784Z,13.50
2018-05-26T08:02:53.135Z,8.63
2018-05-26T08:05:20.828Z,7.30
2018-05-26T08:07:48.360Z,7.40
2018-05-26T08:10:16.011Z,7.13
2018-05-26T08:12:43.499Z,7.00
2018-05-26T08:15:10.967Z,6.87
2018-05-26T08:17:38.431Z,6.33
2018-05-26T08:20:05.894Z,6.93
2018-05-26T08:22:33.374Z,7.07
2018-05-26T08:25:00.829Z,6.50
2018-05-26T08:27:28.307Z,6.30
2018-05-26T08:29:55.771Z,6.40
2018-05-26T08:32:23.238Z,6.27
2018-05-26T08:34:50.702Z,6.40
2018-05-26T08:37:18.171Z,6.43
2018-05-26T08:39:45.634Z,6.20
2018-05-26T08:42:13.120Z,5.67
2018-05-26T08:44:40.743Z,6.23
2018-05-26T08:47:08.270Z,5.87
2018-05-26T08:49:37.446Z,6.00
2018-05-26T08:52:04.916Z,5.80
2018-05-26T08:54:32.374Z,6.27
2018-05-26T08:56:59.854Z,5.87
2018-05-26T08:59:27.317Z,5.87
2018-05-26T09:01:54.804Z,6.30
2018-05-26T09:04:22.263Z,6.27
2018-05-26T09:06:49.730Z,6.37
2018-05-26T09:09:17.205Z,6.20
2018-05-26T09:11:44.662Z,5.77
2018-05-26T09:14:12.447Z,5.80
2018-05-26T09:16:39.906Z,4.90
2018-05-26T09:19:08.892Z,5.57
2018-05-26T09:21:36.350Z,5.10
2018-05-26T09:24:04.003Z,4.43
2018-05-26T09:26:31.482Z,4.73
2018-05-26T09:28:58.942Z,4.70
2018-05-26T09:31:26.397Z,4.90
2018-05-26T09:33:53.864Z,4.47
2018-05-26T09:36:21.323Z,4.40
2018-05-26T09:38:48.790Z,5.13
2018-05-26T09:41:16.246Z,4.70
2018-05-26T09:43:43.801Z,4.70
2018-05-26T09:46:12.730Z,4.50
2018-05-26T09:48:40.218Z,4.77
2018-05-26T09:51:07.987Z,4.33
2018-05-26T09:53:35.744Z,4.50
2018-05-26T09:56:03.248Z,4.40
2018-05-26T09:58:31.446Z,4.33
2018-05-26T10:00:58.910Z,4.70
2018-05-26T10:03:26.500Z,4.33
2018-05-26T10:05:54.139Z,4.40
2018-05-26T10:08:21.626Z,4.40
2018-05-26T10:10:49.174Z,4.00
2018-05-26T10:13:16.627Z,4.03
2018-05-26T10:15:44.108Z,4.37
2018-05-26T10:18:11.760Z,4.43
2018-05-26T10:20:39.302Z,4.40
2018-05-26T10:23:06.762Z,4.27
2018-05-26T10:25:34.423Z,4.13
2018-05-26T10:28:01.988Z,4.00
2018-05-26T10:30:29.450Z,4.43
2018-05-26T10:32:57.683Z,4.57
2018-05-26T10:35:25.199Z,5.57
2018-05-26T10:37:52.659Z,4.50
2018-05-26T10:40:20.191Z,4.53
2018-05-26T10:42:47.950Z,4.20
2018-05-26T10:45:15.415Z,4.10
2018-05-26T10:47:43.667Z,3.83
2018-05-26T10:50:11.242Z,3.97
2018-05-26T10:52:38.698Z,3.80
2018-05-26T10:55:06.350Z,3.83
2018-05-26T10:57:33.806Z,3.70
2018-05-26T11:00:01.296Z,4.07
2018-05-26T11:02:28.754Z,4.03
2018-05-26T11:04:56.233Z,4.10
2018-05-26T11:07:23.746Z,4.17
2018-05-26T11:09:51.510Z,3.87
2018-05-26T11:12:18.987Z,4.00
2018-05-26T11:14:46.745Z,4.20
2018-05-26T11:17:15.922Z,4.20
2018-05-26T11:19:43.398Z,4.30
2018-05-26T11:22:10.954Z,4.00
2018-05-26T11:24:38.831Z,3.77
2018-05-26T11:27:06.394Z,3.90
2018-05-26T11:29:33.867Z,4.20
2018-05-26T11:32:01.394Z,3.70
2018-05-26T11:34:28.882Z,4.17
2018-05-26T11:36:56.361Z,4.10
2018-05-26T11:39:24.662Z,3.87
2018-05-26T11:41:52.126Z,4.00
2018-05-26T11:44:21.090Z,3.87
2018-05-26T11:46:48.557Z,3.70
2018-05-26T11:49:16.778Z,4.27
2018-05-26T11:51:45.019Z,4.13
2018-05-26T11:54:12.498Z,3.83
2018-05-26T11:56:41.470Z,3.97
2018-05-26T11:59:09.128Z,3.63
2018-05-26T12:01:36.710Z,4.03
2018-05-26T12:04:04.170Z,3.73
2018-05-26T12:06:31.626Z,3.77
2018-05-26T12:08:59.274Z,3.63
2018-05-26T12:11:26.812Z,3.67
2018-05-26T12:13:54.484Z,3.70
2018-05-26T12:16:21.941Z,3.50
2018-05-26T12:18:49.519Z,3.90
2018-05-26T12:21:18.507Z,3.77
2018-05-26T12:23:46.386Z,3.87
2018-05-26T12:26:13.914Z,3.63
2018-05-26T12:28:41.419Z,3.97
2018-05-26T12:31:08.874Z,3.83
2018-05-26T12:33:36.409Z,3.70
2018-05-26T12:36:05.430Z,3.60
2018-05-26T12:38:33.050Z,3.50
2018-05-26T12:41:00.619Z,3.93
2018-05-26T12:43:29.923Z,3.83
2018-05-26T12:45:57.566Z,3.77
2018-05-26T12:48:25.134Z,3.50
2018-05-26T12:50:52.773Z,3.33
2018-05-26T12:53:20.363Z,3.40
2018-05-26T12:55:49.354Z,3.47
2018-05-26T12:58:16.986Z,3.53
2018-05-26T13:00:44.570Z,3.57
2018-05-26T13:03:13.878Z,4.00
2018-05-26T13:05:41.555Z,3.57
2018-05-26T13:08:09.017Z,3.90
2018-05-26T13:10:36.499Z,3.60
2018-05-26T13:13:04.009Z,3.73
2018-05-26T13:15:33.306Z,3.90
2018-05-26T13:18:02.602Z,3.60
2018-05-26T13:20:30.358Z,3.67
2018-05-26T13:22:58.135Z,3.57
2018-05-26T13:25:27.134Z,3.40
2018-05-26T13:27:55.359Z,3.33
2018-05-26T13:30:22.970Z,3.23
2018-05-26T13:32:50.727Z,3.37
2018-05-26T13:35:19.759Z,3.20
2018-05-26T13:37:47.390Z,3.20
2018-05-26T13:40:14.936Z,3.00
2018-05-26T13:42:42.579Z,3.60
2018-05-26T13:45:10.042Z,3.20
2018-05-26T13:47:37.618Z,3.30
2018-05-26T13:50:06.610Z,3.30
2018-05-26T13:52:35.790Z,3.50
2018-05-26T13:55:03.292Z,3.50
2018-05-26T13:57:30.718Z,3.30
2018-05-26T13:59:58.179Z,3.70
2018-05-26T14:02:25.689Z,3.10
2018-05-26T14:04:53.128Z,3.60
2018-05-26T14:07:20.637Z,3.10
2018-05-26T14:09:48.402Z,3.40
2018-05-26T14:12:15.871Z,3.37
2018-05-26T14:14:44.834Z,3.33
2018-05-26T14:17:12.335Z,3.40
2018-05-26T14:19:40.082Z,3.40
2018-05-26T14:22:09.058Z,3.27
2018-05-26T14:24:36.522Z,3.10
2018-05-26T14:27:03.990Z,3.00
2018-05-26T14:29:32.986Z,3.00
2018-05-26T14:32:01.973Z,3.50
2018-05-26T14:34:29.748Z,3.27
2018-05-26T14:36:57.217Z,3.40
2018-05-26T14:39:24.831Z,3.37
2018-05-26T14:41:52.338Z,3.30
2018-05-26T14:44:19.789Z,3.40
2018-05-26T14:46:47.259Z,3.37
2018-05-26T14:49:14.714Z,4.10
2018-05-26T14:51:42.180Z,3.60
2018-05-26T14:54:09.699Z,3.37
2018-05-26T14:56:38.674Z,3.37
2018-05-26T14:59:06.151Z,3.17
2018-05-26T15:01:35.454Z,3.33
2018-05-26T15:04:04.418Z,3.13
2018-05-26T15:06:31.910Z,3.20
2018-05-26T15:08:59.548Z,3.53
2018-05-26T15:11:27.032Z,3.40
2018-05-26T15:13:54.498Z,3.53
2018-05-26T15:16:21.959Z,3.27
2018-05-26T15:18:49.498Z,3.33
2018-05-26T15:21:17.139Z,3.50
2018-05-26T15:23:44.642Z,3.30
2018-05-26T15:26:12.159Z,3.70
2018-05-26T15:28:39.846Z,3.30
2018-05-26T15:31:07.403Z,3.27
2018-05-26T15:33:35.038Z,3.30
2018-05-26T15:36:02.615Z,3.43
2018-05-26T15:38:31.599Z,4.03
2018-05-26T15:40:59.249Z,6.83
2018-05-26T15:43:26.750Z,3.90
2018-05-26T15:45:54.216Z,3.80
2018-05-26T15:48:21.739Z,3.70
2018-05-26T15:50:49.198Z,3.40
2018-05-26T15:53:16.972Z,3.60
2018-05-26T15:55:44.498Z,3.33
2018-05-26T15:58:12.094Z,3.70
2018-05-26T16:00:39.622Z,3.63
2018-05-26T16:03:07.290Z,3.50
2018-05-26T16:05:34.773Z,3.50
2018-05-26T16:08:03.245Z,3.77
2018-05-26T16:10:30.710Z,3.40
2018-05-26T16:12:58.165Z,3.60
2018-05-26T16:15:25.641Z,4.00
2018-05-26T16:17:53.091Z,4.03
2018-05-26T16:20:20.566Z,3.70
2018-05-26T16:22:48.015Z,3.43
2018-05-26T16:25:15.483Z,3.60
2018-05-26T16:27:42.940Z,4.50
2018-05-26T16:30:10.409Z,4.33
2018-05-26T16:32:37.867Z,4.07
2018-05-26T16:35:05.362Z,4.80
2018-05-26T16:37:32.846Z,3.77
2018-05-26T16:40:01.079Z,3.60
2018-05-26T16:42:28.545Z,3.87
2018-05-26T16:44:56.010Z,4.30
2018-05-26T16:47:23.475Z,3.70
2018-05-26T16:49:50.934Z,3.50
2018-05-26T16:52:18.386Z,3.80
2018-05-26T16:54:45.871Z,3.77
2018-05-26T16:57:13.331Z,3.70
2018-05-26T16:59:40.802Z,4.00
2018-05-26T17:02:08.269Z,3.70
2018-05-26T17:04:35.722Z,3.80
2018-05-26T17:07:03.190Z,3.47
2018-05-26T17:09:30.675Z,3.40
2018-05-26T17:11:58.121Z,3.77
2018-05-26T17:14:25.621Z,3.90
2018-05-26T17:16:53.858Z,3.93
2018-05-26T17:19:21.310Z,4.40
2018-05-26T17:21:48.774Z,4.37
2018-05-26T17:24:16.229Z,3.90
2018-05-26T17:26:43.713Z,3.70
2018-05-26T17:29:11.174Z,4.10
2018-05-26T17:31:38.643Z,4.00
2018-05-26T17:34:06.090Z,4.10
2018-05-26T17:36:33.756Z,4.03
2018-05-26T17:39:01.218Z,4.10
2018-05-26T17:41:28.686Z,3.73
2018-05-26T17:43:56.148Z,3.70
2018-05-26T17:46:23.603Z,3.67
2018-05-26T17:48:51.130Z,4.20
2018-05-26T17:51:18.578Z,4.10
2018-05-26T17:53:47.550Z,4.00
2018-05-26T17:56:15.202Z,3.77
2018-05-26T17:58:42.679Z,3.90
2018-05-26T18:01:10.126Z,4.80
2018-05-26T18:03:37.617Z,5.30
2018-05-26T18:06:05.162Z,4.00
2018-05-26T18:08:34.142Z,18.97
2018-05-26T18:11:01.914Z,5.73
2018-05-26T18:13:29.388Z,9.13
2018-05-26T18:15:57.161Z,5.73
2018-05-26T18:18:24.626Z,4.40
2018-05-26T18:20:52.210Z,4.17
2018-05-26T18:23:19.814Z,4.20
2018-05-26T18:25:47.270Z,4.30
2018-05-26T18:28:14.866Z,4.10
2018-05-26T18:30:43.290Z,4.70
2018-05-26T18:33:10.828Z,4.07
2018-05-26T18:35:38.282Z,4.37
2018-05-26T18:38:05.791Z,4.13
2018-05-26T18:40:33.426Z,4.00
2018-05-26T18:43:00.891Z,4.30
2018-05-26T18:45:28.462Z,4.23
2018-05-26T18:47:57.549Z,4.73
2018-05-26T18:50:25.178Z,4.70
2018-05-26T18:52:52.835Z,4.60
2018-05-26T18:55:20.450Z,4.50
2018-05-26T18:57:49.622Z,4.50
2018-05-26T19:00:17.081Z,5.70
2018-05-26T19:02:44.555Z,11.57
2018-05-26T19:05:12.030Z,11.07
2018-05-26T19:07:39.482Z,8.97
2018-05-26T19:10:07.035Z,7.60
2018-05-26T19:12:34.790Z,6.47
2018-05-26T19:15:03.771Z,6.57
2018-05-26T19:17:31.431Z,5.60
2018-05-26T19:19:58.923Z,5.10
2018-05-26T19:22:26.463Z,4.87
2018-05-26T19:24:55.651Z,5.17
2018-05-26T19:27:23.148Z,4.80
2018-05-26T19:29:50.679Z,4.70
2018-05-26T19:32:19.982Z,9.33
2018-05-26T19:34:48.234Z,7.27
2018-05-26T19:37:15.725Z,6.37
2018-05-26T19:39:43.269Z,5.83
2018-05-26T19:42:12.246Z,5.40
2018-05-26T19:44:40.037Z,5.80
2018-05-26T19:47:09.322Z,5.80
2018-05-26T19:49:36.977Z,6.30
2018-05-26T19:52:04.742Z,7.00
2018-05-26T19:54:32.207Z,7.80
2018-05-26T19:56:59.674Z,7.17
2018-05-26T19:59:27.171Z,6.67
2018-05-26T20:01:54.647Z,6.43
2018-05-26T20:04:22.138Z,5.87
2018-05-26T20:06:49.614Z,6.80
2018-05-26T20:09:17.233Z,6.30
2018-05-26T20:11:44.731Z,6.30
2018-05-26T20:14:12.281Z,6.00
2018-05-26T20:16:41.266Z,6.40
2018-05-26T20:19:09.064Z,21.23
2018-05-26T20:21:36.678Z,7.67
2018-05-26T20:24:04.254Z,6.00
2018-05-26T20:26:33.223Z,5.73
2018-05-26T20:29:01.018Z,5.50
2018-05-26T20:31:28.483Z,5.90
2018-05-26T20:33:55.951Z,6.00
2018-05-26T20:36:23.595Z,6.10
2018-05-26T20:38:51.066Z,5.97
2018-05-26T20:41:18.606Z,6.00
2018-05-26T20:43:46.844Z,6.37
2018-05-26T20:46:14.370Z,6.30
2018-05-26T20:48:41.894Z,6.20
2018-05-26T20:51:10.288Z,6.13
2018-05-26T20:53:38.035Z,5.53
2018-05-26T20:56:05.676Z,6.43
2018-05-26T20:58:33.174Z,6.23
2018-05-26T21:01:00.720Z,6.57
2018-05-26T21:03:29.694Z,6.30
2018-05-26T21:05:57.155Z,6.27
2018-05-26T21:08:24.812Z,6.43
2018-05-26T21:10:52.399Z,6.60
2018-05-26T21:13:20.022Z,6.83
2018-05-26T21:15:47.602Z,6.30
2018-05-26T21:18:15.058Z,6.67
2018-05-26T21:20:42.727Z,6.70
2018-05-26T21:23:10.175Z,6.27
2018-05-26T21:25:37.647Z,6.67
2018-05-26T21:28:05.102Z,6.83
2018-05-26T21:30:32.578Z,6.13
2018-05-26T21:33:00.032Z,7.23
2018-05-26T21:35:27.493Z,6.50
2018-05-26T21:37:55.022Z,6.77
2018-05-26T21:40:22.663Z,6.50
2018-05-26T21:42:50.182Z,6.87
2018-05-26T21:45:17.698Z,6.63
2018-05-26T21:47:45.156Z,6.57
2018-05-26T21:50:12.746Z,7.10
2018-05-26T21:52:40.374Z,7.00
2018-05-26T21:55:08.143Z,7.00
2018-05-26T21:57:35.905Z,7.47
2018-05-26T22:00:03.383Z,6.87
2018-05-26T22:02:31.122Z,7.23
2018-05-26T22:04:58.615Z,7.17
2018-05-26T22:07:26.675Z,7.33
2018-05-26T22:09:54.207Z,6.43
2018-05-26T22:12:21.881Z,6.60
2018-05-26T22:14:49.341Z,6.70
2018-05-26T22:17:18.137Z,6.30
2018-05-26T22:19:46.362Z,6.50
2018-05-26T22:22:13.840Z,7.30
2018-05-26T22:24:41.488Z,7.30
2018-05-26T22:27:08.986Z,6.80
2018-05-26T22:29:36.443Z,6.83
2018-05-26T22:32:03.989Z,7.10
2018-05-26T22:34:31.757Z,7.00
2018-05-26T22:36:59.530Z,7.13
2018-05-26T22:39:27.282Z,7.20
2018-05-26T22:41:55.048Z,7.40
2018-05-26T22:44:22.801Z,7.30
2018-05-26T22:46:50.454Z,7.10
2018-05-26T22:49:18.949Z,7.17
2018-05-26T22:51:46.602Z,7.20
2018-05-26T22:54:14.078Z,8.60
2018-05-26T22:56:41.542Z,7.77
2018-05-26T22:59:09.082Z,7.27
2018-05-26T23:01:36.841Z,7.33
2018-05-26T23:04:04.431Z,7.30
2018-05-26T23:06:32.865Z,7.50
2018-05-26T23:09:00.431Z,7.53
2018-05-26T23:11:27.882Z,7.83
2018-05-26T23:13:55.355Z,7.53
2018-05-26T23:16:22.809Z,8.13
2018-05-26T23:18:50.461Z,7.70
2018-05-26T23:21:17.945Z,8.43
2018-05-26T23:23:45.418Z,9.10
2018-05-26T23:26:12.878Z,9.37
2018-05-26T23:28:40.350Z,8.70
2018-05-26T23:31:07.818Z,8.90
2018-05-26T23:33:35.299Z,10.37
2018-05-26T23:36:02.781Z,9.20
2018-05-26T23:38:30.546Z,8.97
2018-05-26T23:40:58.185Z,9.30
2018-05-26T23:43:25.674Z,8.10
2018-05-26T23:45:53.131Z,7.50
2018-05-26T23:48:20.679Z,8.07
2018-05-26T23:50:48.346Z,7.40
2018-05-26T23:53:15.815Z,7.47
2018-05-26T23:55:43.357Z,8.33
2018-05-26T23:58:10.811Z,7.53
